Evendale, Pennsylvania
Current Conditions -  °F | °C
As of 5:20 AM on Sunday 25 Jan 2015 (Local Time) from KSEG Reporting Station
Overcast Overcast  
Wind Chill:   Ceiling: 3300
Heat Index:   Visibility: 10mi
Dew Point: -2°   Wind: 7mph
Humidity: 70%   Direction: NA
Pressure: 29.67"   Gusts: NA
Location:  40.6987°N, 77.1242°W
Report Text: KSEG 251020Z AUTO VRB06KT 10SM OVC033 03/M02 A2967 RMK AO2 T00331017
Loading
Personal Weather Stations






























Interactive Weather Map New forecast layout! Learn more

10-Day Weather Forecast

Advertisements
Track Severe Weather on mobile